createdAt,value
2017-07-04T00:01:21.189Z,82.26
2017-07-04T00:03:50.941Z,81.85
2017-07-04T00:06:20.657Z,82.10
2017-07-04T00:08:50.447Z,82.09
2017-07-04T00:11:20.170Z,81.83
2017-07-04T00:13:49.967Z,81.52
2017-07-04T00:16:19.697Z,81.50
2017-07-04T00:18:49.457Z,82.10
2017-07-04T00:21:19.205Z,82.07
2017-07-04T00:23:48.966Z,81.98
2017-07-04T00:26:18.685Z,82.38
2017-07-04T00:28:48.418Z,82.10
2017-07-04T00:31:18.163Z,81.82
2017-07-04T00:33:47.963Z,81.69
2017-07-04T00:36:17.667Z,81.42
2017-07-04T00:38:47.479Z,81.18
2017-07-04T00:41:17.401Z,80.75
2017-07-04T00:43:47.146Z,80.23
2017-07-04T00:46:17.020Z,79.81
2017-07-04T00:48:46.745Z,79.96
2017-07-04T00:51:16.521Z,79.88
2017-07-04T00:53:46.251Z,80.74
2017-07-04T00:56:16.526Z,81.59
2017-07-04T00:58:46.293Z,81.86
2017-07-04T01:01:16.073Z,81.32
2017-07-04T01:03:45.782Z,81.21
2017-07-04T01:06:15.542Z,81.00
2017-07-04T01:08:45.292Z,80.57
2017-07-04T01:11:15.065Z,80.55
2017-07-04T01:13:44.815Z,80.67
2017-07-04T01:16:14.553Z,81.27
2017-07-04T01:18:43.933Z,81.14
2017-07-04T01:21:13.685Z,81.02
2017-07-04T01:23:43.250Z,81.41
2017-07-04T01:26:12.983Z,81.58
2017-07-04T01:28:42.717Z,81.59
2017-07-04T01:31:12.480Z,81.44
2017-07-04T01:33:42.210Z,81.36
2017-07-04T01:36:11.961Z,81.28
2017-07-04T01:38:41.697Z,81.25
2017-07-04T01:41:11.472Z,80.83
2017-07-04T01:43:41.221Z,80.75
2017-07-04T01:46:10.968Z,80.44
2017-07-04T01:48:40.709Z,80.22
2017-07-04T01:51:10.441Z,80.10
2017-07-04T01:53:40.186Z,80.16
2017-07-04T01:56:09.934Z,80.53
2017-07-04T01:58:39.682Z,81.00
2017-07-04T02:01:09.418Z,80.89
2017-07-04T02:03:39.158Z,81.36
2017-07-04T02:06:08.908Z,82.04
2017-07-04T02:08:38.640Z,82.37
2017-07-04T02:11:08.389Z,82.75
2017-07-04T02:13:38.962Z,82.83
2017-07-04T02:16:08.691Z,82.54
2017-07-04T02:18:38.430Z,82.39
2017-07-04T02:21:08.186Z,82.38
2017-07-04T02:23:37.959Z,82.36
2017-07-04T02:26:07.670Z,82.55
2017-07-04T02:28:37.412Z,82.54
2017-07-04T02:31:07.160Z,82.59
2017-07-04T02:33:36.943Z,82.92
2017-07-04T02:36:06.721Z,83.04
2017-07-04T02:38:36.457Z,83.54
2017-07-04T02:41:06.416Z,84.05
2017-07-04T02:43:36.149Z,84.26
2017-07-04T02:46:05.883Z,84.41
2017-07-04T02:48:35.479Z,84.37
2017-07-04T02:51:05.217Z,84.29
2017-07-04T02:53:34.981Z,84.44
2017-07-04T02:56:04.701Z,84.57
2017-07-04T02:58:34.435Z,84.52
2017-07-04T03:01:04.178Z,84.56
2017-07-04T03:03:33.905Z,84.63
2017-07-04T03:06:03.640Z,84.54
2017-07-04T03:08:33.461Z,84.81
2017-07-04T03:11:03.157Z,84.86
2017-07-04T03:13:32.886Z,84.86
2017-07-04T03:16:02.645Z,84.90
2017-07-04T03:18:32.383Z,84.75
2017-07-04T03:21:02.122Z,84.66
2017-07-04T03:23:31.657Z,85.10
2017-07-04T03:26:01.389Z,85.12
2017-07-04T03:28:31.165Z,85.58
2017-07-04T03:31:00.882Z,85.98
2017-07-04T03:33:30.638Z,85.90
2017-07-04T03:36:00.373Z,85.83
2017-07-04T03:38:29.778Z,85.92
2017-07-04T03:40:59.513Z,86.04
2017-07-04T03:43:29.255Z,85.63
2017-07-04T03:45:58.731Z,85.12
2017-07-04T03:48:28.440Z,85.03
2017-07-04T03:50:58.219Z,84.99
2017-07-04T03:53:28.006Z,84.93
2017-07-04T03:55:57.754Z,84.89
2017-07-04T03:58:27.494Z,84.89
2017-07-04T04:00:57.055Z,84.92
2017-07-04T04:03:26.778Z,84.50
2017-07-04T04:05:56.545Z,84.50
2017-07-04T04:08:26.268Z,84.51
2017-07-04T04:10:56.095Z,83.99
2017-07-04T04:13:25.821Z,84.29
2017-07-04T04:15:55.563Z,84.41
2017-07-04T04:18:25.332Z,84.42
2017-07-04T04:20:54.720Z,84.12
2017-07-04T04:23:24.449Z,83.79
2017-07-04T04:25:54.198Z,83.54
2017-07-04T04:28:23.954Z,83.58
2017-07-04T04:30:53.732Z,83.60
2017-07-04T04:33:22.789Z,83.56
2017-07-04T04:35:52.546Z,84.37
2017-07-04T04:38:22.399Z,84.04
2017-07-04T04:40:52.139Z,83.78
2017-07-04T04:43:21.886Z,83.65
2017-07-04T04:45:51.681Z,83.90
2017-07-04T04:48:21.417Z,84.35
2017-07-04T04:50:51.194Z,84.19
2017-07-04T04:53:21.009Z,84.31
2017-07-04T04:55:50.728Z,84.22
2017-07-04T04:58:20.472Z,83.90
2017-07-04T05:00:50.215Z,83.78
2017-07-04T05:03:19.954Z,83.57
2017-07-04T05:05:49.716Z,83.45
2017-07-04T05:08:19.458Z,83.54
2017-07-04T05:10:49.213Z,83.60
2017-07-04T05:13:18.931Z,83.21
2017-07-04T05:15:48.658Z,83.00
2017-07-04T05:18:18.409Z,82.88
2017-07-04T05:20:48.181Z,82.42
2017-07-04T05:23:17.785Z,82.12
2017-07-04T05:25:47.530Z,81.38
2017-07-04T05:28:17.291Z,80.82
2017-07-04T05:30:47.055Z,81.32
2017-07-04T05:33:16.450Z,81.55
2017-07-04T05:35:46.169Z,81.81
2017-07-04T05:38:15.905Z,81.57
2017-07-04T05:40:45.648Z,81.43
2017-07-04T05:43:15.444Z,80.55
2017-07-04T05:45:45.182Z,79.55
2017-07-04T05:48:14.912Z,78.20
2017-07-04T05:50:44.661Z,77.92
2017-07-04T05:53:14.449Z,77.98
2017-07-04T05:55:44.213Z,77.99
2017-07-04T05:58:13.964Z,77.36
2017-07-04T06:00:43.709Z,77.66
2017-07-04T06:03:13.462Z,77.60
2017-07-04T06:05:43.215Z,77.09
2017-07-04T06:08:12.965Z,76.46
2017-07-04T06:10:42.721Z,73.87
2017-07-04T06:13:12.473Z,73.40
2017-07-04T06:15:42.229Z,73.04
2017-07-04T06:18:13.553Z,71.67
2017-07-04T06:20:43.300Z,70.76
2017-07-04T06:23:13.028Z,71.69
2017-07-04T06:25:42.763Z,71.19
2017-07-04T06:28:12.033Z,70.55
2017-07-04T06:30:41.781Z,71.06
2017-07-04T06:33:11.265Z,70.76
2017-07-04T06:35:41.017Z,70.21
2017-07-04T06:38:10.488Z,69.58
2017-07-04T06:40:39.776Z,69.07
2017-07-04T06:43:09.248Z,68.96
2017-07-04T06:45:38.698Z,68.63
2017-07-04T06:48:08.198Z,68.80
2017-07-04T06:50:37.870Z,67.80
2017-07-04T06:53:07.341Z,66.67
2017-07-04T06:55:36.818Z,65.08
2017-07-04T06:58:06.273Z,63.01
2017-07-04T07:00:35.734Z,63.41
2017-07-04T07:03:05.212Z,62.06
2017-07-04T07:05:34.678Z,63.05
2017-07-04T07:08:03.794Z,60.11
2017-07-04T07:10:33.246Z,59.42
2017-07-04T07:13:02.705Z,58.54
2017-07-04T07:15:32.177Z,57.98
2017-07-04T07:18:01.617Z,57.09
2017-07-04T07:20:31.125Z,57.03
2017-07-04T07:23:00.549Z,57.51
2017-07-04T07:25:29.993Z,58.18
2017-07-04T07:27:59.446Z,58.04
2017-07-04T07:30:28.924Z,57.68
2017-07-04T07:32:58.367Z,56.73
2017-07-04T07:35:27.824Z,56.72
2017-07-04T07:37:57.269Z,55.50
2017-07-04T07:40:26.720Z,55.99
2017-07-04T07:42:56.195Z,55.35
2017-07-04T07:45:25.629Z,54.87
2017-07-04T07:47:55.121Z,55.45
2017-07-04T07:50:24.572Z,55.83
2017-07-04T07:52:54.029Z,55.54
2017-07-04T07:55:23.499Z,55.66
2017-07-04T07:57:52.961Z,55.48
2017-07-04T08:00:22.447Z,55.64
2017-07-04T08:02:51.893Z,54.52
2017-07-04T08:05:21.389Z,54.49
2017-07-04T08:07:50.944Z,54.77
2017-07-04T08:10:20.426Z,53.91
2017-07-04T08:12:49.886Z,54.10
2017-07-04T08:15:19.358Z,53.58
2017-07-04T08:17:48.802Z,53.29
2017-07-04T08:20:18.130Z,52.77
2017-07-04T08:22:47.567Z,53.18
2017-07-04T08:25:17.054Z,52.20
2017-07-04T08:27:46.517Z,51.62
2017-07-04T08:30:16.782Z,51.94
2017-07-04T08:32:46.437Z,52.04
2017-07-04T08:35:15.930Z,52.42
2017-07-04T08:37:45.411Z,52.60
2017-07-04T08:40:14.914Z,52.43
2017-07-04T08:42:44.340Z,52.31
2017-07-04T08:45:13.808Z,51.07
2017-07-04T08:47:43.145Z,51.23
2017-07-04T08:50:12.620Z,49.53
2017-07-04T08:52:42.145Z,49.83
2017-07-04T08:55:11.614Z,49.45
2017-07-04T08:57:41.051Z,48.45
2017-07-04T09:00:10.528Z,46.81
2017-07-04T09:02:39.859Z,46.50
2017-07-04T09:05:09.350Z,46.27
2017-07-04T09:07:38.801Z,43.92
2017-07-04T09:10:08.315Z,45.17
2017-07-04T09:12:37.746Z,46.92
2017-07-04T09:15:07.250Z,48.79
2017-07-04T09:17:36.693Z,49.86
2017-07-04T09:20:06.192Z,50.61
2017-07-04T09:22:35.437Z,50.27
2017-07-04T09:25:04.946Z,51.27
2017-07-04T09:27:34.410Z,51.38
2017-07-04T09:30:03.887Z,51.51
2017-07-04T09:32:33.341Z,51.21
2017-07-04T09:35:02.817Z,50.16
2017-07-04T09:37:32.256Z,49.33
2017-07-04T09:40:01.878Z,49.18
2017-07-04T09:42:31.314Z,48.71
2017-07-04T09:45:00.762Z,48.37
2017-07-04T09:47:30.253Z,48.39
2017-07-04T09:49:59.721Z,47.07
2017-07-04T09:52:29.158Z,47.16
2017-07-04T09:54:58.613Z,47.22
2017-07-04T09:57:28.079Z,47.06
2017-07-04T09:59:57.542Z,47.46
2017-07-04T10:02:26.994Z,48.08
2017-07-04T10:04:56.469Z,47.44
2017-07-04T10:07:26.014Z,48.49
2017-07-04T10:09:55.480Z,47.07
2017-07-04T10:12:24.892Z,47.54
2017-07-04T10:14:54.163Z,48.48
2017-07-04T10:17:23.606Z,47.67
2017-07-04T10:19:53.048Z,47.25
2017-07-04T10:22:22.494Z,47.97
2017-07-04T10:24:51.973Z,47.26
2017-07-04T10:27:21.417Z,47.70
2017-07-04T10:29:50.865Z,46.83
2017-07-04T10:32:20.357Z,47.35
2017-07-04T10:34:49.802Z,45.49
2017-07-04T10:37:19.245Z,44.38
2017-07-04T10:39:48.734Z,42.53
2017-07-04T10:42:18.186Z,40.42
2017-07-04T10:44:47.634Z,42.12
2017-07-04T10:47:17.076Z,42.71
2017-07-04T10:49:46.520Z,42.69
2017-07-04T10:52:15.794Z,41.42
2017-07-04T10:54:45.254Z,43.23
2017-07-04T10:57:14.732Z,43.62
2017-07-04T10:59:44.397Z,43.91
2017-07-04T11:02:13.854Z,44.96
2017-07-04T11:04:43.129Z,44.15
2017-07-04T11:07:12.599Z,44.71
2017-07-04T11:09:42.045Z,43.61
2017-07-04T11:12:11.511Z,44.72
2017-07-04T11:14:40.944Z,44.69
2017-07-04T11:17:10.399Z,45.48
2017-07-04T11:19:39.881Z,45.45
2017-07-04T11:22:09.368Z,45.69
2017-07-04T11:24:38.801Z,46.27
2017-07-04T11:27:08.323Z,46.09
2017-07-04T11:29:37.746Z,45.93
2017-07-04T11:32:07.045Z,46.28
2017-07-04T11:34:36.489Z,45.05
2017-07-04T11:37:05.937Z,45.22
2017-07-04T11:39:35.431Z,44.34
2017-07-04T11:42:04.854Z,44.43
2017-07-04T11:44:34.302Z,44.32
2017-07-04T11:47:03.757Z,43.98
2017-07-04T11:49:33.062Z,43.36
2017-07-04T11:52:02.502Z,42.67
2017-07-04T11:54:31.993Z,40.01
2017-07-04T11:57:01.509Z,42.72
2017-07-04T11:59:30.930Z,43.60
2017-07-04T12:02:00.396Z,42.86
2017-07-04T12:04:29.837Z,41.46
2017-07-04T12:06:59.379Z,41.34
2017-07-04T12:09:28.881Z,40.22
2017-07-04T12:11:58.319Z,40.22
2017-07-04T12:14:27.766Z,37.15
2017-07-04T12:16:57.235Z,36.46
2017-07-04T12:19:26.821Z,36.77
2017-07-04T12:21:56.254Z,37.48
2017-07-04T12:24:25.703Z,36.92
2017-07-04T12:26:55.136Z,35.78
2017-07-04T12:29:24.604Z,36.06
2017-07-04T12:31:54.030Z,34.38
2017-07-04T12:34:23.486Z,35.83
2017-07-04T12:36:52.928Z,34.57
2017-07-04T12:39:22.382Z,32.67
2017-07-04T12:41:51.834Z,32.00
2017-07-04T12:44:21.306Z,29.52
2017-07-04T12:46:50.752Z,29.85
2017-07-04T12:49:20.219Z,28.55
2017-07-04T12:51:49.669Z,28.46
2017-07-04T12:54:19.128Z,30.44
2017-07-04T12:56:48.613Z,31.46
2017-07-04T12:59:18.050Z,28.43
2017-07-04T13:01:47.521Z,30.77
2017-07-04T13:04:16.961Z,33.38
2017-07-04T13:06:46.403Z,34.50
2017-07-04T13:09:15.874Z,35.36
2017-07-04T13:11:45.302Z,37.37
2017-07-04T13:14:14.745Z,38.57
2017-07-04T13:16:44.303Z,38.63
2017-07-04T13:19:13.721Z,38.87
2017-07-04T13:21:43.169Z,38.74
2017-07-04T13:24:12.629Z,38.60
2017-07-04T13:26:42.078Z,38.86
2017-07-04T13:29:11.516Z,38.40
2017-07-04T13:31:40.979Z,38.45
2017-07-04T13:34:10.413Z,38.05
2017-07-04T13:36:39.853Z,38.08
2017-07-04T13:39:09.317Z,37.94
2017-07-04T13:41:38.758Z,33.41
2017-07-04T13:44:08.223Z,30.41
2017-07-04T13:46:37.752Z,30.42
2017-07-04T13:49:07.227Z,30.25
2017-07-04T13:51:36.674Z,29.11
2017-07-04T13:54:06.173Z,27.84
2017-07-04T13:56:35.599Z,27.82
2017-07-04T13:59:05.056Z,26.41
2017-07-04T14:01:34.514Z,26.09
2017-07-04T14:04:03.975Z,26.09
2017-07-04T14:06:33.496Z,25.91
2017-07-04T14:09:02.754Z,25.71
2017-07-04T14:11:32.205Z,24.09
2017-07-04T14:14:01.788Z,24.49
2017-07-04T14:16:31.234Z,23.36
2017-07-04T14:19:00.725Z,23.24
2017-07-04T14:21:30.205Z,25.00
2017-07-04T14:23:59.679Z,25.15
2017-07-04T14:26:29.403Z,22.41
2017-07-04T14:28:58.840Z,24.68
2017-07-04T14:31:28.313Z,22.28
2017-07-04T14:33:57.792Z,22.51
2017-07-04T14:36:27.075Z,23.14
2017-07-04T14:38:56.554Z,22.59
2017-07-04T14:41:26.030Z,22.30
2017-07-04T14:43:55.503Z,23.05
2017-07-04T14:46:24.947Z,23.84
2017-07-04T14:48:54.390Z,23.92
2017-07-04T14:51:23.838Z,23.11
2017-07-04T14:53:53.299Z,23.06
2017-07-04T14:56:22.887Z,23.11
2017-07-04T14:58:52.681Z,27.12
2017-07-04T15:01:22.124Z,29.26
2017-07-04T15:03:51.607Z,29.83
2017-07-04T15:06:21.074Z,31.60
2017-07-04T15:08:50.631Z,32.96
2017-07-04T15:11:20.593Z,33.64
2017-07-04T15:13:50.034Z,32.91
2017-07-04T15:16:19.499Z,33.82
2017-07-04T15:18:49.011Z,34.35
2017-07-04T15:21:18.468Z,34.51
2017-07-04T15:23:47.945Z,34.88
2017-07-04T15:26:17.394Z,35.30
2017-07-04T15:28:46.866Z,33.64
2017-07-04T15:31:16.330Z,29.61
2017-07-04T15:33:45.611Z,28.60
2017-07-04T15:36:15.180Z,27.30
2017-07-04T15:38:44.660Z,27.70
2017-07-04T15:41:14.139Z,28.08
2017-07-04T15:43:43.605Z,29.45
2017-07-04T15:46:13.049Z,29.90
2017-07-04T15:48:42.493Z,26.79
2017-07-04T15:51:12.125Z,27.39
2017-07-04T15:53:41.647Z,28.34
2017-07-04T15:56:11.089Z,27.12
2017-07-04T15:58:40.573Z,27.11
2017-07-04T16:01:10.035Z,27.21
2017-07-04T16:03:39.535Z,27.20
2017-07-04T16:06:08.988Z,26.64
2017-07-04T16:08:38.481Z,26.08
2017-07-04T16:11:08.875Z,26.01
2017-07-04T16:13:38.342Z,25.99
2017-07-04T16:16:07.803Z,26.82
2017-07-04T16:18:37.251Z,26.97
2017-07-04T16:21:06.792Z,27.06
2017-07-04T16:23:36.222Z,26.87
2017-07-04T16:26:05.699Z,26.04
2017-07-04T16:28:34.975Z,27.17
2017-07-04T16:31:04.418Z,26.53
2017-07-04T16:33:33.886Z,24.88
2017-07-04T16:36:03.361Z,25.46
2017-07-04T16:38:32.819Z,24.02
2017-07-04T16:41:02.332Z,25.25
2017-07-04T16:43:31.766Z,25.66
2017-07-04T16:46:01.252Z,26.25
2017-07-04T16:48:30.752Z,25.16
2017-07-04T16:51:00.213Z,26.32
2017-07-04T16:53:30.522Z,26.24
2017-07-04T16:56:00.007Z,26.64
2017-07-04T16:58:29.462Z,26.47
2017-07-04T17:00:58.785Z,27.15
2017-07-04T17:03:28.415Z,26.81
2017-07-04T17:05:57.949Z,26.95
2017-07-04T17:08:27.405Z,27.08
2017-07-04T17:10:57.116Z,26.77
2017-07-04T17:13:26.555Z,26.74
2017-07-04T17:15:56.022Z,27.25
2017-07-04T17:18:26.393Z,26.58
2017-07-04T17:20:55.892Z,26.92
2017-07-04T17:23:25.351Z,26.41
2017-07-04T17:25:54.806Z,27.77
2017-07-04T17:28:24.353Z,27.26
2017-07-04T17:30:53.832Z,27.52
2017-07-04T17:33:23.282Z,27.59
2017-07-04T17:35:52.733Z,28.21
2017-07-04T17:38:22.224Z,27.39
2017-07-04T17:40:51.718Z,27.24
2017-07-04T17:43:21.141Z,28.23
2017-07-04T17:45:50.595Z,29.07
2017-07-04T17:48:20.117Z,28.95
2017-07-04T17:50:49.576Z,28.62
2017-07-04T17:53:19.026Z,28.66
2017-07-04T17:55:48.497Z,28.16
2017-07-04T17:58:17.959Z,28.50
2017-07-04T18:00:47.402Z,29.85
2017-07-04T18:03:16.855Z,29.69
2017-07-04T18:05:46.289Z,30.49
2017-07-04T18:08:15.803Z,30.23
2017-07-04T18:10:45.508Z,30.28
2017-07-04T18:13:14.750Z,30.75
2017-07-04T18:15:44.197Z,32.07
2017-07-04T18:18:13.657Z,32.17
2017-07-04T18:20:43.112Z,33.01
2017-07-04T18:23:12.581Z,33.18
2017-07-04T18:25:42.047Z,33.53
2017-07-04T18:28:11.490Z,34.84
2017-07-04T18:30:40.958Z,35.02
2017-07-04T18:33:10.540Z,36.44
2017-07-04T18:35:40.069Z,38.23
2017-07-04T18:38:09.519Z,39.86
2017-07-04T18:40:39.054Z,41.57
2017-07-04T18:43:08.566Z,43.31
2017-07-04T18:45:38.010Z,44.00
2017-07-04T18:48:07.475Z,44.30
2017-07-04T18:50:37.001Z,45.94
2017-07-04T18:53:06.531Z,47.47
2017-07-04T18:55:37.651Z,47.88
2017-07-04T18:58:07.105Z,48.97
2017-07-04T19:00:36.580Z,49.79
2017-07-04T19:03:06.117Z,50.50
2017-07-04T19:05:35.577Z,52.36
2017-07-04T19:08:05.042Z,53.24
2017-07-04T19:10:34.521Z,53.92
2017-07-04T19:13:03.966Z,54.46
2017-07-04T19:15:33.727Z,54.94
2017-07-04T19:18:03.186Z,55.87
2017-07-04T19:20:32.730Z,55.98
2017-07-04T19:23:02.265Z,56.18
2017-07-04T19:25:32.025Z,56.71
2017-07-04T19:28:02.027Z,57.35
2017-07-04T19:30:31.597Z,58.17
2017-07-04T19:33:01.341Z,60.45
2017-07-04T19:35:30.912Z,61.29
2017-07-04T19:38:02.732Z,61.52
2017-07-04T19:40:35.670Z,61.97
2017-07-04T19:43:05.555Z,62.83
2017-07-04T19:45:35.037Z,63.17
2017-07-04T19:48:04.130Z,64.16
2017-07-04T19:50:33.592Z,64.18
2017-07-04T19:53:03.075Z,64.80
2017-07-04T19:55:32.559Z,64.50
2017-07-04T19:58:02.267Z,64.75
2017-07-04T20:00:31.735Z,65.26
2017-07-04T20:03:01.006Z,66.04
2017-07-04T20:05:30.505Z,67.04
2017-07-04T20:08:00.838Z,67.30
2017-07-04T20:10:30.307Z,67.54
2017-07-04T20:12:59.771Z,67.59
2017-07-04T20:15:29.232Z,68.31
2017-07-04T20:18:01.430Z,68.55
2017-07-04T20:20:30.887Z,68.73
2017-07-04T20:23:00.373Z,68.90
2017-07-04T20:25:29.922Z,69.60
2017-07-04T20:27:59.409Z,69.99
2017-07-04T20:30:28.883Z,70.14
2017-07-04T20:32:58.421Z,70.28
2017-07-04T20:35:27.933Z,70.66
2017-07-04T20:37:57.379Z,70.76
2017-07-04T20:40:26.842Z,71.16
2017-07-04T20:42:56.318Z,71.46
2017-07-04T20:45:26.238Z,71.67
2017-07-04T20:47:55.700Z,71.91
2017-07-04T20:50:25.146Z,72.18
2017-07-04T20:52:54.602Z,72.51
2017-07-04T20:55:24.174Z,72.90
2017-07-04T20:57:53.611Z,73.05
2017-07-04T21:00:23.108Z,73.27
2017-07-04T21:02:52.632Z,73.52
2017-07-04T21:05:22.084Z,73.29
2017-07-04T21:07:51.539Z,73.36
2017-07-04T21:10:21.088Z,73.83
2017-07-04T21:12:50.541Z,74.14
2017-07-04T21:15:20.046Z,74.57
2017-07-04T21:17:49.477Z,74.77
2017-07-04T21:20:19.132Z,75.18
2017-07-04T21:22:48.581Z,75.35
2017-07-04T21:25:18.371Z,75.16
2017-07-04T21:27:48.134Z,74.89
2017-07-04T21:30:17.919Z,75.09
2017-07-04T21:32:47.367Z,75.65
2017-07-04T21:35:17.145Z,75.79
2017-07-04T21:37:46.862Z,75.92
2017-07-04T21:40:16.654Z,76.30
2017-07-04T21:42:46.386Z,76.14
2017-07-04T21:45:16.178Z,76.24
2017-07-04T21:47:45.943Z,76.15
2017-07-04T21:50:15.731Z,76.28
2017-07-04T21:52:45.467Z,76.11
2017-07-04T21:55:15.245Z,76.15
2017-07-04T21:57:44.973Z,76.45
2017-07-04T22:00:14.798Z,76.67
2017-07-04T22:02:44.350Z,76.78
2017-07-04T22:05:14.121Z,77.02
2017-07-04T22:07:43.838Z,77.33
2017-07-04T22:10:16.416Z,77.33
2017-07-04T22:12:46.841Z,77.64
2017-07-04T22:15:16.652Z,77.70
2017-07-04T22:17:46.371Z,77.82
2017-07-04T22:20:16.343Z,77.66
2017-07-04T22:22:46.084Z,77.93
2017-07-04T22:25:15.857Z,78.20
2017-07-04T22:27:45.585Z,78.89
2017-07-04T22:30:15.355Z,78.98
2017-07-04T22:32:45.075Z,79.13
2017-07-04T22:35:14.887Z,78.89
2017-07-04T22:37:44.630Z,78.84
2017-07-04T22:40:14.415Z,78.67
2017-07-04T22:42:44.142Z,78.67
2017-07-04T22:45:13.916Z,78.75
2017-07-04T22:47:43.662Z,78.88
2017-07-04T22:50:13.431Z,78.91
2017-07-04T22:52:43.238Z,78.79
2017-07-04T22:55:13.035Z,78.89
2017-07-04T22:57:42.834Z,78.99
2017-07-04T23:00:12.669Z,79.23
2017-07-04T23:02:42.218Z,79.33
2017-07-04T23:05:11.990Z,79.36
2017-07-04T23:07:41.721Z,79.51
2017-07-04T23:10:11.508Z,79.62
2017-07-04T23:12:41.242Z,79.85
2017-07-04T23:15:11.031Z,79.68
2017-07-04T23:17:40.767Z,79.47
2017-07-04T23:20:10.551Z,79.83
2017-07-04T23:22:40.274Z,80.10
2017-07-04T23:25:10.082Z,79.78
2017-07-04T23:27:39.837Z,79.61
2017-07-04T23:30:09.633Z,79.59
2017-07-04T23:32:39.349Z,79.66
2017-07-04T23:35:09.123Z,80.02
2017-07-04T23:37:38.848Z,80.44
2017-07-04T23:40:08.615Z,80.62
2017-07-04T23:42:38.353Z,81.07
2017-07-04T23:45:08.132Z,81.10
2017-07-04T23:47:37.845Z,80.73
2017-07-04T23:50:07.682Z,80.66
2017-07-04T23:52:37.404Z,80.79
2017-07-04T23:55:07.183Z,81.02
2017-07-04T23:57:37.027Z,81.09
